sensor_id;sensor_type;location;lat;lon;timestamp;P1;durP1;ratioP1;P2;durP2;ratioP2
18263;SDS011;9258;48.668;9.172;2022-10-03T00:02:51;1.95;;;1.60;;
18263;SDS011;9258;48.668;9.172;2022-10-03T00:06:20;2.40;;;1.90;;
18263;SDS011;9258;48.668;9.172;2022-10-03T00:09:35;2.85;;;1.80;;
18263;SDS011;9258;48.668;9.172;2022-10-03T00:12:49;2.15;;;1.50;;
18263;SDS011;9258;48.668;9.172;2022-10-03T00:16:05;3.63;;;1.70;;
18263;SDS011;9258;48.668;9.172;2022-10-03T00:19:15;3.33;;;1.67;;
18263;SDS011;9258;48.668;9.172;2022-10-03T00:22:27;4.60;;;1.60;;
18263;SDS011;9258;48.668;9.172;2022-10-03T00:25:38;1.80;;;1.38;;
18263;SDS011;9258;48.668;9.172;2022-10-03T00:28:54;2.75;;;1.67;;
18263;SDS011;9258;48.668;9.172;2022-10-03T00:32:06;1.75;;;1.58;;
18263;SDS011;9258;48.668;9.172;2022-10-03T00:35:23;2.53;;;1.60;;
18263;SDS011;9258;48.668;9.172;2022-10-03T00:38:51;4.78;;;1.42;;
18263;SDS011;9258;48.668;9.172;2022-10-03T00:49:46;2.60;;;1.90;;
18263;SDS011;9258;48.668;9.172;2022-10-03T00:53:15;2.53;;;1.80;;
18263;SDS011;9258;48.668;9.172;2022-10-03T00:56:45;3.33;;;2.10;;
18263;SDS011;9258;48.668;9.172;2022-10-03T01:00:16;4.43;;;2.10;;
18263;SDS011;9258;48.668;9.172;2022-10-03T01:03:27;5.35;;;2.60;;
18263;SDS011;9258;48.668;9.172;2022-10-03T01:06:38;4.55;;;2.55;;
18263;SDS011;9258;48.668;9.172;2022-10-03T01:09:49;3.53;;;2.58;;
18263;SDS011;9258;48.668;9.172;2022-10-03T01:13:04;5.32;;;3.10;;
18263;SDS011;9258;48.668;9.172;2022-10-03T01:16:18;8.40;;;3.33;;
18263;SDS011;9258;48.668;9.172;2022-10-03T01:19:29;4.00;;;3.28;;
18263;SDS011;9258;48.668;9.172;2022-10-03T01:22:50;4.43;;;3.90;;
18263;SDS011;9258;48.668;9.172;2022-10-03T01:26:17;6.60;;;3.40;;
18263;SDS011;9258;48.668;9.172;2022-10-03T01:29:37;5.68;;;3.88;;
18263;SDS011;9258;48.668;9.172;2022-10-03T01:33:17;4.88;;;3.90;;
18263;SDS011;9258;48.668;9.172;2022-10-03T01:36:28;5.07;;;4.05;;
18263;SDS011;9258;48.668;9.172;2022-10-03T01:39:36;6.03;;;3.85;;
18263;SDS011;9258;48.668;9.172;2022-10-03T01:42:43;5.15;;;4.40;;
18263;SDS011;9258;48.668;9.172;2022-10-03T01:46:09;7.30;;;3.78;;
18263;SDS011;9258;48.668;9.172;2022-10-03T01:49:18;6.72;;;4.95;;
18263;SDS011;9258;48.668;9.172;2022-10-03T01:52:27;6.13;;;3.95;;
18263;SDS011;9258;48.668;9.172;2022-10-03T01:55:39;5.53;;;4.50;;
18263;SDS011;9258;48.668;9.172;2022-10-03T01:58:53;5.30;;;3.90;;
18263;SDS011;9258;48.668;9.172;2022-10-03T02:02:03;6.38;;;4.53;;
18263;SDS011;9258;48.668;9.172;2022-10-03T02:05:11;6.47;;;5.13;;
18263;SDS011;9258;48.668;9.172;2022-10-03T02:08:22;5.32;;;4.50;;
18263;SDS011;9258;48.668;9.172;2022-10-03T02:11:30;7.25;;;4.38;;
18263;SDS011;9258;48.668;9.172;2022-10-03T02:14:48;6.28;;;4.95;;
18263;SDS011;9258;48.668;9.172;2022-10-03T02:17:59;7.22;;;5.38;;
18263;SDS011;9258;48.668;9.172;2022-10-03T02:21:15;7.60;;;5.07;;
18263;SDS011;9258;48.668;9.172;2022-10-03T02:24:23;5.97;;;5.40;;
18263;SDS011;9258;48.668;9.172;2022-10-03T02:27:41;7.28;;;5.22;;
18263;SDS011;9258;48.668;9.172;2022-10-03T02:38:43;7.35;;;4.82;;
18263;SDS011;9258;48.668;9.172;2022-10-03T02:45:55;8.77;;;4.93;;
18263;SDS011;9258;48.668;9.172;2022-10-03T02:49:31;7.07;;;5.18;;
18263;SDS011;9258;48.668;9.172;2022-10-03T02:56:42;4.85;;;4.10;;
18263;SDS011;9258;48.668;9.172;2022-10-03T03:00:05;7.00;;;4.38;;
18263;SDS011;9258;48.668;9.172;2022-10-03T03:03:25;6.18;;;3.88;;
18263;SDS011;9258;48.668;9.172;2022-10-03T03:06:55;6.07;;;3.97;;
18263;SDS011;9258;48.668;9.172;2022-10-03T03:10:29;8.70;;;4.38;;
18263;SDS011;9258;48.668;9.172;2022-10-03T03:13:46;7.80;;;4.63;;
18263;SDS011;9258;48.668;9.172;2022-10-03T03:17:29;6.70;;;4.30;;
18263;SDS011;9258;48.668;9.172;2022-10-03T03:20:40;3.92;;;3.60;;
18263;SDS011;9258;48.668;9.172;2022-10-03T03:23:57;5.38;;;4.68;;
18263;SDS011;9258;48.668;9.172;2022-10-03T03:27:22;5.75;;;4.60;;
18263;SDS011;9258;48.668;9.172;2022-10-03T03:30:41;7.55;;;4.47;;
18263;SDS011;9258;48.668;9.172;2022-10-03T03:33:51;8.27;;;4.78;;
18263;SDS011;9258;48.668;9.172;2022-10-03T03:37:00;7.47;;;5.03;;
18263;SDS011;9258;48.668;9.172;2022-10-03T03:40:11;6.53;;;4.90;;
18263;SDS011;9258;48.668;9.172;2022-10-03T03:43:48;5.30;;;4.80;;
18263;SDS011;9258;48.668;9.172;2022-10-03T03:47:02;7.35;;;4.80;;
18263;SDS011;9258;48.668;9.172;2022-10-03T03:50:23;8.00;;;5.22;;
18263;SDS011;9258;48.668;9.172;2022-10-03T03:53:44;6.20;;;5.13;;
18263;SDS011;9258;48.668;9.172;2022-10-03T03:57:06;7.93;;;5.28;;
18263;SDS011;9258;48.668;9.172;2022-10-03T04:00:29;7.72;;;5.75;;
18263;SDS011;9258;48.668;9.172;2022-10-03T04:03:48;10.77;;;6.03;;
18263;SDS011;9258;48.668;9.172;2022-10-03T04:07:01;8.57;;;5.80;;
18263;SDS011;9258;48.668;9.172;2022-10-03T04:10:16;11.80;;;6.32;;
18263;SDS011;9258;48.668;9.172;2022-10-03T04:13:33;9.57;;;6.80;;
18263;SDS011;9258;48.668;9.172;2022-10-03T04:16:56;10.63;;;6.97;;
18263;SDS011;9258;48.668;9.172;2022-10-03T04:20:42;10.63;;;6.60;;
18263;SDS011;9258;48.668;9.172;2022-10-03T04:24:03;7.97;;;6.40;;
18263;SDS011;9258;48.668;9.172;2022-10-03T04:27:26;8.50;;;5.75;;
18263;SDS011;9258;48.668;9.172;2022-10-03T04:30:41;7.88;;;5.88;;
18263;SDS011;9258;48.668;9.172;2022-10-03T04:33:59;8.30;;;6.35;;
18263;SDS011;9258;48.668;9.172;2022-10-03T04:37:20;9.68;;;6.78;;
18263;SDS011;9258;48.668;9.172;2022-10-03T04:40:37;7.68;;;5.90;;
18263;SDS011;9258;48.668;9.172;2022-10-03T04:43:47;9.90;;;6.10;;
18263;SDS011;9258;48.668;9.172;2022-10-03T04:46:55;7.38;;;5.45;;
18263;SDS011;9258;48.668;9.172;2022-10-03T04:50:06;14.25;;;4.80;;
18263;SDS011;9258;48.668;9.172;2022-10-03T04:53:27;10.07;;;4.45;;
18263;SDS011;9258;48.668;9.172;2022-10-03T04:56:42;8.85;;;4.28;;
18263;SDS011;9258;48.668;9.172;2022-10-03T04:59:49;14.10;;;4.45;;
18263;SDS011;9258;48.668;9.172;2022-10-03T05:03:03;13.45;;;4.60;;
18263;SDS011;9258;48.668;9.172;2022-10-03T05:06:21;11.23;;;4.95;;
18263;SDS011;9258;48.668;9.172;2022-10-03T05:09:31;18.35;;;5.20;;
18263;SDS011;9258;48.668;9.172;2022-10-03T05:12:40;17.42;;;5.80;;
18263;SDS011;9258;48.668;9.172;2022-10-03T05:15:53;18.00;;;5.72;;
18263;SDS011;9258;48.668;9.172;2022-10-03T05:19:17;22.08;;;6.15;;
18263;SDS011;9258;48.668;9.172;2022-10-03T05:22:42;22.45;;;5.82;;
18263;SDS011;9258;48.668;9.172;2022-10-03T05:25:49;12.93;;;5.43;;
18263;SDS011;9258;48.668;9.172;2022-10-03T05:29:01;12.38;;;6.07;;
18263;SDS011;9258;48.668;9.172;2022-10-03T05:32:13;10.05;;;5.70;;
18263;SDS011;9258;48.668;9.172;2022-10-03T05:35:23;11.07;;;6.03;;
18263;SDS011;9258;48.668;9.172;2022-10-03T05:45:46;13.57;;;6.78;;
18263;SDS011;9258;48.668;9.172;2022-10-03T05:48:55;17.27;;;7.45;;
18263;SDS011;9258;48.668;9.172;2022-10-03T05:52:12;15.38;;;6.90;;
18263;SDS011;9258;48.668;9.172;2022-10-03T05:55:41;13.95;;;6.95;;
18263;SDS011;9258;48.668;9.172;2022-10-03T06:02:37;13.57;;;7.20;;
18263;SDS011;9258;48.668;9.172;2022-10-03T06:09:28;16.40;;;8.07;;
18263;SDS011;9258;48.668;9.172;2022-10-03T06:12:41;15.18;;;8.07;;
18263;SDS011;9258;48.668;9.172;2022-10-03T06:16:00;12.48;;;8.10;;
18263;SDS011;9258;48.668;9.172;2022-10-03T06:19:24;15.30;;;8.23;;
18263;SDS011;9258;48.668;9.172;2022-10-03T06:22:46;14.30;;;8.18;;
18263;SDS011;9258;48.668;9.172;2022-10-03T06:26:15;18.65;;;8.57;;
18263;SDS011;9258;48.668;9.172;2022-10-03T06:29:41;17.40;;;9.13;;
18263;SDS011;9258;48.668;9.172;2022-10-03T06:37:09;16.88;;;8.48;;
18263;SDS011;9258;48.668;9.172;2022-10-03T06:44:25;17.13;;;8.85;;
18263;SDS011;9258;48.668;9.172;2022-10-03T06:47:40;19.00;;;9.32;;
18263;SDS011;9258;48.668;9.172;2022-10-03T06:51:07;13.77;;;8.55;;
18263;SDS011;9258;48.668;9.172;2022-10-03T06:54:47;16.08;;;9.13;;
18263;SDS011;9258;48.668;9.172;2022-10-03T07:02:00;18.40;;;8.88;;
18263;SDS011;9258;48.668;9.172;2022-10-03T07:05:25;15.77;;;8.65;;
18263;SDS011;9258;48.668;9.172;2022-10-03T07:09:10;20.33;;;10.98;;
18263;SDS011;9258;48.668;9.172;2022-10-03T07:12:57;17.50;;;9.82;;
18263;SDS011;9258;48.668;9.172;2022-10-03T07:19:58;12.90;;;8.63;;
18263;SDS011;9258;48.668;9.172;2022-10-03T07:23:27;15.00;;;8.13;;
18263;SDS011;9258;48.668;9.172;2022-10-03T07:27:09;13.68;;;8.43;;
18263;SDS011;9258;48.668;9.172;2022-10-03T07:30:20;16.65;;;9.88;;
18263;SDS011;9258;48.668;9.172;2022-10-03T07:33:44;14.50;;;7.80;;
18263;SDS011;9258;48.668;9.172;2022-10-03T07:37:17;14.55;;;8.90;;
18263;SDS011;9258;48.668;9.172;2022-10-03T07:40:50;11.95;;;8.50;;
18263;SDS011;9258;48.668;9.172;2022-10-03T07:44:17;12.48;;;8.18;;
18263;SDS011;9258;48.668;9.172;2022-10-03T07:51:25;15.05;;;9.10;;
18263;SDS011;9258;48.668;9.172;2022-10-03T07:54:38;11.80;;;7.97;;
18263;SDS011;9258;48.668;9.172;2022-10-03T07:58:01;14.02;;;8.73;;
18263;SDS011;9258;48.668;9.172;2022-10-03T08:01:23;9.93;;;8.13;;
18263;SDS011;9258;48.668;9.172;2022-10-03T08:08:21;11.80;;;7.78;;
18263;SDS011;9258;48.668;9.172;2022-10-03T08:15:19;11.63;;;8.15;;
18263;SDS011;9258;48.668;9.172;2022-10-03T08:18:34;10.55;;;7.53;;
18263;SDS011;9258;48.668;9.172;2022-10-03T08:21:57;9.50;;;7.53;;
18263;SDS011;9258;48.668;9.172;2022-10-03T08:25:09;12.73;;;8.20;;
18263;SDS011;9258;48.668;9.172;2022-10-03T08:28:31;13.68;;;8.43;;
18263;SDS011;9258;48.668;9.172;2022-10-03T08:31:47;12.93;;;8.35;;
18263;SDS011;9258;48.668;9.172;2022-10-03T08:38:41;11.93;;;6.95;;
18263;SDS011;9258;48.668;9.172;2022-10-03T08:45:37;8.88;;;7.00;;
18263;SDS011;9258;48.668;9.172;2022-10-03T08:48:52;11.98;;;7.35;;
18263;SDS011;9258;48.668;9.172;2022-10-03T08:52:13;11.18;;;7.10;;
18263;SDS011;9258;48.668;9.172;2022-10-03T08:55:35;11.90;;;6.43;;
18263;SDS011;9258;48.668;9.172;2022-10-03T08:58:55;9.90;;;6.50;;
18263;SDS011;9258;48.668;9.172;2022-10-03T09:13:39;10.43;;;6.50;;
18263;SDS011;9258;48.668;9.172;2022-10-03T09:17:19;10.23;;;6.32;;
18263;SDS011;9258;48.668;9.172;2022-10-03T09:28:31;14.68;;;6.15;;
18263;SDS011;9258;48.668;9.172;2022-10-03T09:39:03;8.40;;;5.97;;
18263;SDS011;9258;48.668;9.172;2022-10-03T09:42:25;7.28;;;4.90;;
18263;SDS011;9258;48.668;9.172;2022-10-03T09:45:49;10.85;;;5.18;;
18263;SDS011;9258;48.668;9.172;2022-10-03T09:49:21;4.10;;;3.70;;
18263;SDS011;9258;48.668;9.172;2022-10-03T09:52:43;4.85;;;3.60;;
18263;SDS011;9258;48.668;9.172;2022-10-03T09:56:09;4.97;;;3.58;;
18263;SDS011;9258;48.668;9.172;2022-10-03T09:59:35;5.63;;;3.60;;
18263;SDS011;9258;48.668;9.172;2022-10-03T10:03:04;6.25;;;2.90;;
18263;SDS011;9258;48.668;9.172;2022-10-03T10:06:38;5.05;;;2.85;;
18263;SDS011;9258;48.668;9.172;2022-10-03T10:10:09;6.57;;;3.20;;
18263;SDS011;9258;48.668;9.172;2022-10-03T10:13:51;9.40;;;3.45;;
18263;SDS011;9258;48.668;9.172;2022-10-03T10:24:35;4.70;;;2.97;;
18263;SDS011;9258;48.668;9.172;2022-10-03T10:36:08;6.13;;;3.25;;
18263;SDS011;9258;48.668;9.172;2022-10-03T10:53:59;4.45;;;2.80;;
18263;SDS011;9258;48.668;9.172;2022-10-03T10:57:29;5.30;;;2.90;;
18263;SDS011;9258;48.668;9.172;2022-10-03T11:15:51;4.38;;;2.75;;
18263;SDS011;9258;48.668;9.172;2022-10-03T11:19:27;6.72;;;2.88;;
18263;SDS011;9258;48.668;9.172;2022-10-03T11:22:55;6.05;;;2.60;;
18263;SDS011;9258;48.668;9.172;2022-10-03T11:30:02;4.15;;;2.83;;
18263;SDS011;9258;48.668;9.172;2022-10-03T11:40:39;6.05;;;3.10;;
18263;SDS011;9258;48.668;9.172;2022-10-03T11:43:59;4.10;;;3.33;;
18263;SDS011;9258;48.668;9.172;2022-10-03T11:50:48;7.22;;;4.28;;
18263;SDS011;9258;48.668;9.172;2022-10-03T11:53:54;8.73;;;4.90;;
18263;SDS011;9258;48.668;9.172;2022-10-03T11:57:04;8.95;;;3.80;;
18263;SDS011;9258;48.668;9.172;2022-10-03T12:00:10;5.90;;;3.83;;
18263;SDS011;9258;48.668;9.172;2022-10-03T12:03:16;8.50;;;4.05;;
18263;SDS011;9258;48.668;9.172;2022-10-03T12:06:36;7.65;;;3.97;;
18263;SDS011;9258;48.668;9.172;2022-10-03T12:10:05;5.80;;;3.50;;
18263;SDS011;9258;48.668;9.172;2022-10-03T12:13:19;9.52;;;3.70;;
18263;SDS011;9258;48.668;9.172;2022-10-03T12:16:30;5.78;;;3.05;;
18263;SDS011;9258;48.668;9.172;2022-10-03T12:19:49;6.00;;;3.80;;
18263;SDS011;9258;48.668;9.172;2022-10-03T12:23:05;6.22;;;3.00;;
18263;SDS011;9258;48.668;9.172;2022-10-03T12:26:22;5.97;;;2.60;;
18263;SDS011;9258;48.668;9.172;2022-10-03T12:29:32;4.68;;;2.90;;
18263;SDS011;9258;48.668;9.172;2022-10-03T12:32:37;5.22;;;2.65;;
18263;SDS011;9258;48.668;9.172;2022-10-03T12:35:50;6.93;;;3.10;;
18263;SDS011;9258;48.668;9.172;2022-10-03T12:39:12;7.55;;;3.15;;
18263;SDS011;9258;48.668;9.172;2022-10-03T12:42:25;6.18;;;3.03;;
18263;SDS011;9258;48.668;9.172;2022-10-03T12:45:31;5.65;;;2.70;;
18263;SDS011;9258;48.668;9.172;2022-10-03T12:48:38;9.18;;;3.05;;
18263;SDS011;9258;48.668;9.172;2022-10-03T12:51:50;4.25;;;2.45;;
18263;SDS011;9258;48.668;9.172;2022-10-03T12:55:00;5.22;;;2.47;;
18263;SDS011;9258;48.668;9.172;2022-10-03T12:58:17;7.45;;;2.20;;
18263;SDS011;9258;48.668;9.172;2022-10-03T13:01:33;4.75;;;2.70;;
18263;SDS011;9258;48.668;9.172;2022-10-03T13:04:54;4.72;;;2.25;;
18263;SDS011;9258;48.668;9.172;2022-10-03T13:08:31;4.43;;;2.17;;
18263;SDS011;9258;48.668;9.172;2022-10-03T13:11:48;5.07;;;2.28;;
18263;SDS011;9258;48.668;9.172;2022-10-03T13:18:43;4.78;;;2.10;;
18263;SDS011;9258;48.668;9.172;2022-10-03T13:21:55;6.13;;;2.08;;
18263;SDS011;9258;48.668;9.172;2022-10-03T13:25:06;5.70;;;2.20;;
18263;SDS011;9258;48.668;9.172;2022-10-03T13:28:19;5.18;;;2.08;;
18263;SDS011;9258;48.668;9.172;2022-10-03T13:31:31;2.85;;;1.80;;
18263;SDS011;9258;48.668;9.172;2022-10-03T13:34:44;7.43;;;2.10;;
18263;SDS011;9258;48.668;9.172;2022-10-03T13:37:59;5.80;;;1.95;;
18263;SDS011;9258;48.668;9.172;2022-10-03T13:41:21;3.22;;;1.60;;
18263;SDS011;9258;48.668;9.172;2022-10-03T13:44:34;5.50;;;2.30;;
18263;SDS011;9258;48.668;9.172;2022-10-03T13:47:41;5.07;;;2.22;;
18263;SDS011;9258;48.668;9.172;2022-10-03T13:50:47;3.85;;;1.65;;
18263;SDS011;9258;48.668;9.172;2022-10-03T13:53:58;4.18;;;2.33;;
18263;SDS011;9258;48.668;9.172;2022-10-03T13:57:05;4.15;;;1.85;;
18263;SDS011;9258;48.668;9.172;2022-10-03T14:00:15;2.17;;;1.83;;
18263;SDS011;9258;48.668;9.172;2022-10-03T14:03:21;6.75;;;2.35;;
18263;SDS011;9258;48.668;9.172;2022-10-03T14:06:32;4.75;;;2.45;;
18263;SDS011;9258;48.668;9.172;2022-10-03T14:09:44;3.63;;;1.85;;
18263;SDS011;9258;48.668;9.172;2022-10-03T14:13:08;4.38;;;1.80;;
18263;SDS011;9258;48.668;9.172;2022-10-03T14:16:21;4.82;;;2.20;;
18263;SDS011;9258;48.668;9.172;2022-10-03T14:19:30;8.00;;;2.30;;
18263;SDS011;9258;48.668;9.172;2022-10-03T14:22:45;5.72;;;2.38;;
18263;SDS011;9258;48.668;9.172;2022-10-03T14:25:56;5.07;;;2.20;;
18263;SDS011;9258;48.668;9.172;2022-10-03T14:29:05;4.15;;;2.28;;
18263;SDS011;9258;48.668;9.172;2022-10-03T14:32:16;6.25;;;2.83;;
18263;SDS011;9258;48.668;9.172;2022-10-03T14:35:29;4.25;;;2.30;;
18263;SDS011;9258;48.668;9.172;2022-10-03T14:38:45;3.20;;;1.90;;
18263;SDS011;9258;48.668;9.172;2022-10-03T14:42:15;5.13;;;2.17;;
18263;SDS011;9258;48.668;9.172;2022-10-03T14:45:32;7.05;;;2.30;;
18263;SDS011;9258;48.668;9.172;2022-10-03T14:48:41;5.70;;;2.40;;
18263;SDS011;9258;48.668;9.172;2022-10-03T14:51:50;5.60;;;2.17;;
18263;SDS011;9258;48.668;9.172;2022-10-03T14:54:58;3.90;;;2.38;;
18263;SDS011;9258;48.668;9.172;2022-10-03T14:58:11;5.10;;;2.17;;
18263;SDS011;9258;48.668;9.172;2022-10-03T15:01:18;6.82;;;2.53;;
18263;SDS011;9258;48.668;9.172;2022-10-03T15:04:27;4.35;;;1.90;;
18263;SDS011;9258;48.668;9.172;2022-10-03T15:07:34;4.10;;;1.75;;
18263;SDS011;9258;48.668;9.172;2022-10-03T15:10:38;4.88;;;1.92;;
18263;SDS011;9258;48.668;9.172;2022-10-03T15:13:41;5.88;;;2.15;;
18263;SDS011;9258;48.668;9.172;2022-10-03T15:16:50;4.63;;;2.30;;
18263;SDS011;9258;48.668;9.172;2022-10-03T15:19:55;4.68;;;2.38;;
18263;SDS011;9258;48.668;9.172;2022-10-03T15:22:59;3.55;;;1.92;;
18263;SDS011;9258;48.668;9.172;2022-10-03T15:26:02;2.45;;;1.88;;
18263;SDS011;9258;48.668;9.172;2022-10-03T15:29:13;7.53;;;1.90;;
18263;SDS011;9258;48.668;9.172;2022-10-03T15:32:18;3.30;;;1.92;;
18263;SDS011;9258;48.668;9.172;2022-10-03T15:35:26;6.43;;;2.30;;
18263;SDS011;9258;48.668;9.172;2022-10-03T15:38:32;5.03;;;2.20;;
18263;SDS011;9258;48.668;9.172;2022-10-03T15:41:45;5.55;;;1.67;;
18263;SDS011;9258;48.668;9.172;2022-10-03T15:44:51;4.32;;;2.10;;
18263;SDS011;9258;48.668;9.172;2022-10-03T15:47:56;5.25;;;2.47;;
18263;SDS011;9258;48.668;9.172;2022-10-03T15:51:02;3.35;;;1.92;;
18263;SDS011;9258;48.668;9.172;2022-10-03T15:54:15;4.57;;;2.10;;
18263;SDS011;9258;48.668;9.172;2022-10-03T15:57:25;6.20;;;2.05;;
18263;SDS011;9258;48.668;9.172;2022-10-03T16:00:29;2.95;;;1.77;;
18263;SDS011;9258;48.668;9.172;2022-10-03T16:03:33;4.10;;;2.20;;
18263;SDS011;9258;48.668;9.172;2022-10-03T16:06:44;5.38;;;2.28;;
18263;SDS011;9258;48.668;9.172;2022-10-03T16:09:53;4.70;;;2.72;;
18263;SDS011;9258;48.668;9.172;2022-10-03T16:13:11;4.80;;;2.17;;
18263;SDS011;9258;48.668;9.172;2022-10-03T16:16:24;2.90;;;2.08;;
18263;SDS011;9258;48.668;9.172;2022-10-03T16:19:36;4.82;;;2.60;;
18263;SDS011;9258;48.668;9.172;2022-10-03T16:22:42;3.97;;;2.30;;
18263;SDS011;9258;48.668;9.172;2022-10-03T16:25:49;5.88;;;2.63;;
18263;SDS011;9258;48.668;9.172;2022-10-03T16:28:56;3.45;;;2.20;;
18263;SDS011;9258;48.668;9.172;2022-10-03T16:32:13;4.97;;;2.20;;
18263;SDS011;9258;48.668;9.172;2022-10-03T16:35:22;4.35;;;2.45;;
18263;SDS011;9258;48.668;9.172;2022-10-03T16:38:33;5.32;;;2.83;;
18263;SDS011;9258;48.668;9.172;2022-10-03T16:41:38;5.32;;;2.92;;
18263;SDS011;9258;48.668;9.172;2022-10-03T16:44:47;5.65;;;2.47;;
18263;SDS011;9258;48.668;9.172;2022-10-03T16:47:51;5.50;;;2.55;;
18263;SDS011;9258;48.668;9.172;2022-10-03T16:51:13;3.83;;;2.20;;
18263;SDS011;9258;48.668;9.172;2022-10-03T16:54:20;6.13;;;2.70;;
18263;SDS011;9258;48.668;9.172;2022-10-03T16:57:24;7.50;;;3.38;;
18263;SDS011;9258;48.668;9.172;2022-10-03T17:00:33;8.98;;;3.42;;
18263;SDS011;9258;48.668;9.172;2022-10-03T17:03:44;6.72;;;2.88;;
18263;SDS011;9258;48.668;9.172;2022-10-03T17:06:48;6.38;;;3.20;;
18263;SDS011;9258;48.668;9.172;2022-10-03T17:09:53;7.55;;;3.40;;
18263;SDS011;9258;48.668;9.172;2022-10-03T17:12:57;5.53;;;3.00;;
18263;SDS011;9258;48.668;9.172;2022-10-03T17:16:02;6.57;;;3.60;;
18263;SDS011;9258;48.668;9.172;2022-10-03T17:19:14;4.93;;;3.10;;
18263;SDS011;9258;48.668;9.172;2022-10-03T17:22:21;5.65;;;2.95;;
18263;SDS011;9258;48.668;9.172;2022-10-03T17:25:34;5.47;;;3.10;;
18263;SDS011;9258;48.668;9.172;2022-10-03T17:28:42;5.47;;;2.90;;
18263;SDS011;9258;48.668;9.172;2022-10-03T17:31:51;8.80;;;3.67;;
18263;SDS011;9258;48.668;9.172;2022-10-03T17:35:01;11.75;;;8.65;;
18263;SDS011;9258;48.668;9.172;2022-10-03T17:38:12;8.73;;;7.15;;
18263;SDS011;9258;48.668;9.172;2022-10-03T17:41:20;5.95;;;4.57;;
18263;SDS011;9258;48.668;9.172;2022-10-03T17:44:26;6.88;;;3.97;;
18263;SDS011;9258;48.668;9.172;2022-10-03T17:47:38;7.95;;;5.07;;
18263;SDS011;9258;48.668;9.172;2022-10-03T17:50:51;15.73;;;10.48;;
18263;SDS011;9258;48.668;9.172;2022-10-03T17:53:58;20.98;;;12.25;;
18263;SDS011;9258;48.668;9.172;2022-10-03T17:57:04;16.02;;;12.07;;
18263;SDS011;9258;48.668;9.172;2022-10-03T18:00:15;13.93;;;9.85;;
18263;SDS011;9258;48.668;9.172;2022-10-03T18:03:20;18.17;;;11.18;;
18263;SDS011;9258;48.668;9.172;2022-10-03T18:09:50;17.75;;;9.10;;
18263;SDS011;9258;48.668;9.172;2022-10-03T18:12:56;14.65;;;8.80;;
18263;SDS011;9258;48.668;9.172;2022-10-03T18:16:07;11.10;;;6.20;;
18263;SDS011;9258;48.668;9.172;2022-10-03T18:19:25;14.00;;;8.35;;
18263;SDS011;9258;48.668;9.172;2022-10-03T18:22:40;13.13;;;8.68;;
18263;SDS011;9258;48.668;9.172;2022-10-03T18:25:51;11.75;;;7.57;;
18263;SDS011;9258;48.668;9.172;2022-10-03T18:29:07;7.63;;;5.55;;
18263;SDS011;9258;48.668;9.172;2022-10-03T18:32:21;10.35;;;5.28;;
18263;SDS011;9258;48.668;9.172;2022-10-03T18:35:29;7.95;;;5.57;;
18263;SDS011;9258;48.668;9.172;2022-10-03T18:38:34;9.73;;;5.53;;
18263;SDS011;9258;48.668;9.172;2022-10-03T18:41:41;12.90;;;7.70;;
18263;SDS011;9258;48.668;9.172;2022-10-03T18:44:46;13.35;;;7.28;;
18263;SDS011;9258;48.668;9.172;2022-10-03T18:47:49;33.38;;;20.50;;
18263;SDS011;9258;48.668;9.172;2022-10-03T18:50:54;13.75;;;7.53;;
18263;SDS011;9258;48.668;9.172;2022-10-03T18:54:02;10.32;;;6.18;;
18263;SDS011;9258;48.668;9.172;2022-10-03T18:57:15;11.70;;;8.30;;
18263;SDS011;9258;48.668;9.172;2022-10-03T19:00:24;12.90;;;7.30;;
18263;SDS011;9258;48.668;9.172;2022-10-03T19:03:30;12.40;;;7.85;;
18263;SDS011;9258;48.668;9.172;2022-10-03T19:06:37;20.40;;;14.48;;
18263;SDS011;9258;48.668;9.172;2022-10-03T19:09:45;13.77;;;9.45;;
18263;SDS011;9258;48.668;9.172;2022-10-03T19:16:34;14.02;;;9.63;;
18263;SDS011;9258;48.668;9.172;2022-10-03T19:19:48;17.83;;;11.57;;
18263;SDS011;9258;48.668;9.172;2022-10-03T19:22:57;44.78;;;28.38;;
18263;SDS011;9258;48.668;9.172;2022-10-03T19:26:04;30.42;;;20.05;;
18263;SDS011;9258;48.668;9.172;2022-10-03T19:29:11;20.60;;;13.20;;
18263;SDS011;9258;48.668;9.172;2022-10-03T19:32:17;15.57;;;9.93;;
18263;SDS011;9258;48.668;9.172;2022-10-03T19:35:25;11.65;;;7.38;;
18263;SDS011;9258;48.668;9.172;2022-10-03T19:38:30;13.23;;;10.18;;
18263;SDS011;9258;48.668;9.172;2022-10-03T19:41:37;13.30;;;8.93;;
18263;SDS011;9258;48.668;9.172;2022-10-03T19:44:48;24.67;;;14.38;;
18263;SDS011;9258;48.668;9.172;2022-10-03T19:47:56;13.70;;;8.85;;
18263;SDS011;9258;48.668;9.172;2022-10-03T19:51:08;19.63;;;11.65;;
18263;SDS011;9258;48.668;9.172;2022-10-03T19:54:11;16.35;;;8.95;;
18263;SDS011;9258;48.668;9.172;2022-10-03T19:57:29;13.25;;;9.38;;
18263;SDS011;9258;48.668;9.172;2022-10-03T20:00:47;12.05;;;7.93;;
18263;SDS011;9258;48.668;9.172;2022-10-03T20:03:52;15.48;;;8.73;;
18263;SDS011;9258;48.668;9.172;2022-10-03T20:06:57;16.92;;;9.27;;
18263;SDS011;9258;48.668;9.172;2022-10-03T20:10:07;13.15;;;7.50;;
18263;SDS011;9258;48.668;9.172;2022-10-03T20:13:17;19.73;;;8.90;;
18263;SDS011;9258;48.668;9.172;2022-10-03T20:16:19;22.77;;;10.73;;
18263;SDS011;9258;48.668;9.172;2022-10-03T20:19:25;15.88;;;8.07;;
18263;SDS011;9258;48.668;9.172;2022-10-03T20:22:29;13.18;;;8.00;;
18263;SDS011;9258;48.668;9.172;2022-10-03T20:25:34;18.75;;;9.20;;
18263;SDS011;9258;48.668;9.172;2022-10-03T20:28:42;17.67;;;8.25;;
18263;SDS011;9258;48.668;9.172;2022-10-03T20:31:59;12.13;;;6.97;;
18263;SDS011;9258;48.668;9.172;2022-10-03T20:35:03;10.65;;;6.22;;
18263;SDS011;9258;48.668;9.172;2022-10-03T20:38:21;8.93;;;6.68;;
18263;SDS011;9258;48.668;9.172;2022-10-03T20:41:32;12.45;;;6.70;;
18263;SDS011;9258;48.668;9.172;2022-10-03T20:44:48;9.32;;;5.65;;
18263;SDS011;9258;48.668;9.172;2022-10-03T20:47:59;11.18;;;5.72;;
18263;SDS011;9258;48.668;9.172;2022-10-03T20:51:07;9.38;;;6.38;;
18263;SDS011;9258;48.668;9.172;2022-10-03T20:54:21;8.30;;;5.82;;
18263;SDS011;9258;48.668;9.172;2022-10-03T20:57:24;8.82;;;5.85;;
18263;SDS011;9258;48.668;9.172;2022-10-03T21:00:28;11.18;;;5.60;;
18263;SDS011;9258;48.668;9.172;2022-10-03T21:03:34;7.85;;;5.38;;
18263;SDS011;9258;48.668;9.172;2022-10-03T21:06:47;11.10;;;5.78;;
18263;SDS011;9258;48.668;9.172;2022-10-03T21:09:59;9.27;;;5.95;;
18263;SDS011;9258;48.668;9.172;2022-10-03T21:13:12;10.18;;;5.70;;
18263;SDS011;9258;48.668;9.172;2022-10-03T21:16:20;11.75;;;6.25;;
18263;SDS011;9258;48.668;9.172;2022-10-03T21:19:26;11.52;;;5.63;;
18263;SDS011;9258;48.668;9.172;2022-10-03T21:22:39;7.03;;;5.40;;
18263;SDS011;9258;48.668;9.172;2022-10-03T21:25:42;9.57;;;6.03;;
18263;SDS011;9258;48.668;9.172;2022-10-03T21:28:44;9.85;;;5.57;;
18263;SDS011;9258;48.668;9.172;2022-10-03T21:31:47;12.20;;;6.50;;
18263;SDS011;9258;48.668;9.172;2022-10-03T21:34:59;16.38;;;8.48;;
18263;SDS011;9258;48.668;9.172;2022-10-03T21:38:13;19.52;;;10.40;;
18263;SDS011;9258;48.668;9.172;2022-10-03T21:41:24;14.07;;;9.32;;
18263;SDS011;9258;48.668;9.172;2022-10-03T21:44:32;12.48;;;8.63;;
18263;SDS011;9258;48.668;9.172;2022-10-03T21:47:45;13.70;;;8.75;;
18263;SDS011;9258;48.668;9.172;2022-10-03T21:50:51;14.15;;;8.07;;
18263;SDS011;9258;48.668;9.172;2022-10-03T21:54:01;11.77;;;7.25;;
18263;SDS011;9258;48.668;9.172;2022-10-03T21:57:20;11.00;;;6.57;;
18263;SDS011;9258;48.668;9.172;2022-10-03T22:00:43;11.95;;;6.22;;
18263;SDS011;9258;48.668;9.172;2022-10-03T22:03:54;12.13;;;7.32;;
18263;SDS011;9258;48.668;9.172;2022-10-03T22:07:01;15.60;;;10.35;;
18263;SDS011;9258;48.668;9.172;2022-10-03T22:10:15;15.95;;;7.30;;
18263;SDS011;9258;48.668;9.172;2022-10-03T22:13:18;13.05;;;6.88;;
18263;SDS011;9258;48.668;9.172;2022-10-03T22:16:26;9.60;;;6.30;;
18263;SDS011;9258;48.668;9.172;2022-10-03T22:19:35;8.52;;;6.28;;
18263;SDS011;9258;48.668;9.172;2022-10-03T22:22:45;14.85;;;6.60;;
18263;SDS011;9258;48.668;9.172;2022-10-03T22:25:58;11.48;;;6.68;;
18263;SDS011;9258;48.668;9.172;2022-10-03T22:29:09;11.85;;;7.25;;
18263;SDS011;9258;48.668;9.172;2022-10-03T22:32:21;10.82;;;6.07;;